createdAt,value
2019-05-30T00:01:34.686Z,18.80
2019-05-30T00:04:04.931Z,18.79
2019-05-30T00:06:34.540Z,18.80
2019-05-30T00:09:04.668Z,18.78
2019-05-30T00:11:34.161Z,18.77
2019-05-30T00:14:04.959Z,18.76
2019-05-30T00:16:34.693Z,18.77
2019-05-30T00:19:05.060Z,18.76
2019-05-30T00:21:34.687Z,18.75
2019-05-30T00:24:04.341Z,18.76
2019-05-30T00:26:33.793Z,18.74
2019-05-30T00:29:04.522Z,18.71
2019-05-30T00:31:34.210Z,18.66
2019-05-30T00:34:04.218Z,18.67
2019-05-30T00:36:33.777Z,18.65
2019-05-30T00:39:04.152Z,18.67
2019-05-30T00:41:33.999Z,18.66
2019-05-30T00:44:04.366Z,18.64
2019-05-30T00:46:33.997Z,18.65
2019-05-30T00:49:04.527Z,18.62
2019-05-30T00:51:34.163Z,18.61
2019-05-30T00:54:04.709Z,18.54
2019-05-30T00:56:34.390Z,18.54
2019-05-30T00:59:04.911Z,18.49
2019-05-30T01:01:34.662Z,18.49
2019-05-30T01:04:04.983Z,18.49
2019-05-30T01:06:34.520Z,18.51
2019-05-30T01:09:05.192Z,18.53
2019-05-30T01:11:34.768Z,18.52
2019-05-30T01:14:05.420Z,18.50
2019-05-30T01:16:34.996Z,18.47
2019-05-30T01:19:05.266Z,18.47
2019-05-30T01:21:34.741Z,18.48
2019-05-30T01:24:05.659Z,18.45
2019-05-30T01:26:35.208Z,18.42
2019-05-30T01:29:05.563Z,18.42
2019-05-30T01:31:35.049Z,18.42
2019-05-30T01:34:05.853Z,18.40
2019-05-30T01:36:35.501Z,18.37
2019-05-30T01:39:06.523Z,18.39
2019-05-30T01:41:36.160Z,18.36
2019-05-30T01:44:06.141Z,18.36
2019-05-30T01:46:35.793Z,18.33
2019-05-30T01:49:06.678Z,18.33
2019-05-30T01:51:36.350Z,18.34
2019-05-30T01:54:06.609Z,18.33
2019-05-30T01:56:36.188Z,18.31
2019-05-30T01:59:06.728Z,18.32
2019-05-30T02:01:36.281Z,18.29
2019-05-30T02:04:07.252Z,18.30
2019-05-30T02:06:38.135Z,18.28
2019-05-30T02:09:09.229Z,18.23
2019-05-30T02:11:39.395Z,18.24
2019-05-30T02:14:09.947Z,18.26
2019-05-30T02:16:39.533Z,18.24
2019-05-30T02:19:10.577Z,18.25
2019-05-30T02:21:40.330Z,18.21
2019-05-30T02:24:12.069Z,18.21
2019-05-30T02:26:40.973Z,18.22
2019-05-30T02:29:10.491Z,18.19
2019-05-30T02:31:40.134Z,18.19
2019-05-30T02:34:11.723Z,18.18
2019-05-30T02:36:40.964Z,18.15
2019-05-30T02:39:12.036Z,18.12
2019-05-30T02:41:41.635Z,18.11
2019-05-30T02:44:12.473Z,17.65
2019-05-30T02:46:42.044Z,17.07
2019-05-30T02:49:13.580Z,16.74
2019-05-30T02:51:42.586Z,16.40
2019-05-30T02:54:13.287Z,16.25
2019-05-30T02:56:42.919Z,16.19
2019-05-30T02:59:13.675Z,16.02
2019-05-30T03:01:59.763Z,15.76
2019-05-30T03:04:14.608Z,15.66
2019-05-30T03:06:44.043Z,15.56
2019-05-30T03:09:13.587Z,15.42
2019-05-30T03:11:43.023Z,15.16
2019-05-30T03:14:19.036Z,15.06
2019-05-30T03:16:43.580Z,15.09
2019-05-30T03:19:13.108Z,15.21
2019-05-30T03:21:42.486Z,15.19
2019-05-30T03:24:14.251Z,14.98
2019-05-30T03:26:43.052Z,14.55
2019-05-30T03:29:14.360Z,14.44
2019-05-30T03:31:44.970Z,14.58
2019-05-30T03:34:25.676Z,14.67
2019-05-30T03:36:45.479Z,14.84
2019-05-30T03:39:15.548Z,14.89
2019-05-30T03:41:45.073Z,14.90
2019-05-30T03:44:15.630Z,14.84
2019-05-30T03:46:50.113Z,14.85
2019-05-30T03:49:22.043Z,14.80
2019-05-30T03:51:52.110Z,14.76
2019-05-30T03:54:21.748Z,14.79
2019-05-30T03:56:56.508Z,14.78
2019-05-30T03:59:30.277Z,14.84
2019-05-30T04:02:11.744Z,14.57
2019-05-30T04:04:45.744Z,14.61
2019-05-30T04:07:19.555Z,14.73
2019-05-30T04:09:49.976Z,14.65
2019-05-30T04:12:59.977Z,14.56
2019-05-30T04:15:33.223Z,14.49
2019-05-30T04:18:02.764Z,14.56
2019-05-30T04:20:32.229Z,14.51
2019-05-30T04:23:01.693Z,14.56
2019-05-30T04:25:31.165Z,14.46
2019-05-30T04:28:00.599Z,14.53
2019-05-30T04:30:29.983Z,14.58
2019-05-30T04:33:16.125Z,14.57
2019-05-30T04:35:30.508Z,14.58
2019-05-30T04:37:59.885Z,14.57
2019-05-30T04:40:29.287Z,14.53
2019-05-30T04:42:58.703Z,14.48
2019-05-30T04:45:28.641Z,14.46
2019-05-30T04:47:58.303Z,14.13
2019-05-30T04:50:27.720Z,14.10
2019-05-30T04:52:57.108Z,14.19
2019-05-30T04:55:26.496Z,14.12
2019-05-30T04:57:55.892Z,14.17
2019-05-30T05:00:26.022Z,14.45
2019-05-30T05:02:55.366Z,14.57
2019-05-30T05:05:27.066Z,14.52
2019-05-30T05:07:55.830Z,14.56
2019-05-30T05:10:25.226Z,14.62
2019-05-30T05:12:54.686Z,14.72
2019-05-30T05:15:24.143Z,14.83
2019-05-30T05:17:53.509Z,14.59
2019-05-30T05:20:23.498Z,14.44
2019-05-30T05:22:53.039Z,14.67
2019-05-30T05:25:23.521Z,14.57
2019-05-30T05:27:53.038Z,14.64
2019-05-30T05:30:22.600Z,14.82
2019-05-30T05:32:51.992Z,14.67
2019-05-30T05:35:21.487Z,14.73
2019-05-30T05:37:50.943Z,14.82
2019-05-30T05:40:20.469Z,14.93
2019-05-30T05:42:49.820Z,14.89
2019-05-30T05:45:20.529Z,14.89
2019-05-30T05:47:50.014Z,14.84
2019-05-30T05:50:20.471Z,15.03
2019-05-30T05:52:49.939Z,15.00
2019-05-30T05:55:20.778Z,15.39
2019-05-30T05:57:50.393Z,15.31
2019-05-30T06:00:21.321Z,15.36
2019-05-30T06:02:50.876Z,15.30
2019-05-30T06:05:20.307Z,15.17
2019-05-30T06:07:50.986Z,15.15
2019-05-30T06:10:21.644Z,15.20
2019-05-30T06:12:51.442Z,15.26
2019-05-30T06:15:20.881Z,15.33
2019-05-30T06:17:50.208Z,15.55
2019-05-30T06:20:21.220Z,15.63
2019-05-30T06:22:50.646Z,15.38
2019-05-30T06:25:24.030Z,15.16
2019-05-30T06:27:51.148Z,15.23
2019-05-30T06:30:20.591Z,15.83
2019-05-30T06:32:50.007Z,15.64
2019-05-30T06:35:21.256Z,15.66
2019-05-30T06:37:50.553Z,15.64
2019-05-30T06:40:21.278Z,15.78
2019-05-30T06:42:50.901Z,15.77
2019-05-30T06:45:21.110Z,15.85
2019-05-30T06:47:51.498Z,15.69
2019-05-30T06:50:21.025Z,15.63
2019-05-30T06:52:50.498Z,15.90
2019-05-30T06:55:21.066Z,15.93
2019-05-30T06:57:50.777Z,15.99
2019-05-30T07:00:21.694Z,16.00
2019-05-30T07:02:51.251Z,15.90
2019-05-30T07:05:21.507Z,15.71
2019-05-30T07:07:51.955Z,15.70
2019-05-30T07:10:22.718Z,16.06
2019-05-30T07:12:52.248Z,16.69
2019-05-30T07:15:23.019Z,17.21
2019-05-30T07:17:52.585Z,17.26
2019-05-30T07:20:22.046Z,17.54
2019-05-30T07:22:51.412Z,17.50
2019-05-30T07:25:20.892Z,17.50
2019-05-30T07:27:50.355Z,17.55
2019-05-30T07:30:21.435Z,17.70
2019-05-30T07:32:51.134Z,17.95
2019-05-30T07:35:20.696Z,18.00
2019-05-30T07:37:50.249Z,18.02
2019-05-30T07:40:20.036Z,17.83
2019-05-30T07:42:49.341Z,17.97
2019-05-30T07:45:18.965Z,17.95
2019-05-30T07:47:50.068Z,17.67
2019-05-30T07:50:20.448Z,17.94
2019-05-30T07:52:53.054Z,17.84
2019-05-30T07:55:22.478Z,17.98
2019-05-30T07:57:51.966Z,18.21
2019-05-30T08:00:21.464Z,18.12
2019-05-30T08:02:51.926Z,18.13
2019-05-30T08:05:24.698Z,17.88
2019-05-30T08:07:52.544Z,17.61
2019-05-30T08:10:22.194Z,17.47
2019-05-30T08:12:51.566Z,17.84
2019-05-30T08:15:22.047Z,18.18
2019-05-30T08:17:51.653Z,17.88
2019-05-30T08:20:21.263Z,17.88
2019-05-30T08:22:50.691Z,17.87
2019-05-30T08:25:20.161Z,18.17
2019-05-30T08:27:49.661Z,18.43
2019-05-30T08:30:19.406Z,18.52
2019-05-30T08:32:48.817Z,18.53
2019-05-30T08:35:18.672Z,18.65
2019-05-30T08:37:52.377Z,18.69
2019-05-30T08:40:21.771Z,18.74
2019-05-30T08:42:51.243Z,18.75
2019-05-30T08:45:22.399Z,18.89
2019-05-30T08:47:51.758Z,18.93
2019-05-30T08:50:21.193Z,18.74
2019-05-30T08:52:50.593Z,18.71
2019-05-30T08:55:20.149Z,18.90
2019-05-30T08:57:50.699Z,18.98
2019-05-30T09:00:20.408Z,18.99
2019-05-30T09:02:49.835Z,19.08
2019-05-30T09:05:19.253Z,19.10
2019-05-30T09:07:48.631Z,19.15
2019-05-30T09:10:18.113Z,19.26
2019-05-30T09:12:49.503Z,19.35
2019-05-30T09:15:21.890Z,19.35
2019-05-30T09:17:49.940Z,19.41
2019-05-30T09:20:19.549Z,19.52
2019-05-30T09:22:48.988Z,19.55
2019-05-30T09:25:18.524Z,19.63
2019-05-30T09:27:48.426Z,19.69
2019-05-30T09:30:18.661Z,19.74
2019-05-30T09:32:48.925Z,19.79
2019-05-30T09:35:19.933Z,19.86
2019-05-30T09:37:49.610Z,19.90
2019-05-30T09:40:19.518Z,19.94
2019-05-30T09:42:50.327Z,20.01
2019-05-30T09:45:21.767Z,20.07
2019-05-30T09:47:51.437Z,20.12
2019-05-30T09:50:21.514Z,20.17
2019-05-30T09:52:51.353Z,20.20
2019-05-30T09:55:21.243Z,20.25
2019-05-30T09:57:51.690Z,20.65
2019-05-30T10:00:22.853Z,20.91
2019-05-30T10:02:52.629Z,20.75
2019-05-30T10:05:24.545Z,20.75
2019-05-30T10:07:53.512Z,20.79
2019-05-30T10:10:23.100Z,20.91
2019-05-30T10:12:52.829Z,20.71
2019-05-30T10:15:22.384Z,20.62
2019-05-30T10:17:53.891Z,20.60
2019-05-30T10:20:23.743Z,20.65
2019-05-30T10:22:53.849Z,20.69
2019-05-30T10:25:24.068Z,20.69
2019-05-30T10:27:54.866Z,20.65
2019-05-30T10:30:25.125Z,20.65
2019-05-30T10:32:55.862Z,20.66
2019-05-30T10:35:29.453Z,20.64
2019-05-30T10:37:57.131Z,20.63
2019-05-30T10:40:26.665Z,20.68
2019-05-30T10:43:08.557Z,20.73
2019-05-30T10:45:38.790Z,20.77
2019-05-30T10:48:08.370Z,20.89
2019-05-30T10:50:38.120Z,21.17
2019-05-30T10:53:07.688Z,21.12
2019-05-30T10:55:37.210Z,21.44
2019-05-30T10:58:06.809Z,21.36
2019-05-30T11:00:48.973Z,21.37
2019-05-30T11:03:20.015Z,21.46
2019-05-30T11:05:59.316Z,21.38
2019-05-30T11:08:30.380Z,21.50
2019-05-30T11:10:59.889Z,21.39
2019-05-30T11:13:29.522Z,21.62
2019-05-30T11:15:59.052Z,21.40
2019-05-30T11:18:28.574Z,21.40
2019-05-30T11:20:58.611Z,21.59
2019-05-30T11:23:28.172Z,21.72
2019-05-30T11:25:58.817Z,22.11
2019-05-30T11:28:28.405Z,21.84
2019-05-30T11:31:04.155Z,21.92
2019-05-30T11:33:34.356Z,21.87
2019-05-30T11:36:09.899Z,21.88
2019-05-30T11:38:45.355Z,22.12
2019-05-30T11:41:15.031Z,22.09
2019-05-30T11:43:51.527Z,22.05
2019-05-30T11:46:21.237Z,22.12
2019-05-30T11:48:51.645Z,23.63
2019-05-30T11:51:21.224Z,23.02
2019-05-30T11:53:53.859Z,22.65
2019-05-30T11:56:23.323Z,22.44
2019-05-30T11:58:53.916Z,22.37
2019-05-30T12:01:46.451Z,22.49
2019-05-30T12:04:15.887Z,22.39
2019-05-30T12:06:45.402Z,22.35
2019-05-30T12:09:14.871Z,22.38
2019-05-30T12:11:44.389Z,22.29
2019-05-30T12:14:13.817Z,22.19
2019-05-30T12:16:43.272Z,22.17
2019-05-30T12:19:14.881Z,22.19
2019-05-30T12:21:44.412Z,22.10
2019-05-30T12:24:13.912Z,22.11
2019-05-30T12:26:43.345Z,22.56
2019-05-30T12:29:12.866Z,23.73
2019-05-30T12:31:42.326Z,23.16
2019-05-30T12:34:14.740Z,23.33
2019-05-30T12:36:44.256Z,22.91
2019-05-30T12:39:13.739Z,22.82
2019-05-30T12:41:43.340Z,22.85
2019-05-30T12:44:12.821Z,22.89
2019-05-30T12:46:42.271Z,22.84
2019-05-30T12:49:11.753Z,22.93
2019-05-30T12:51:41.216Z,22.94
2019-05-30T12:54:10.884Z,24.37
2019-05-30T12:56:40.421Z,23.86
2019-05-30T12:59:10.096Z,24.11
2019-05-30T13:01:39.584Z,23.93
2019-05-30T13:04:14.096Z,24.47
2019-05-30T13:06:43.615Z,25.25
2019-05-30T13:09:13.170Z,24.44
2019-05-30T13:11:42.614Z,24.36
2019-05-30T13:14:12.198Z,24.80
2019-05-30T13:16:46.418Z,24.24
2019-05-30T13:19:15.851Z,24.08
2019-05-30T13:21:45.408Z,24.11
2019-05-30T13:24:14.887Z,24.22
2019-05-30T13:26:44.434Z,24.41
2019-05-30T13:29:14.018Z,24.60
2019-05-30T13:31:43.474Z,24.49
2019-05-30T13:34:12.951Z,24.88
2019-05-30T13:36:42.404Z,25.48
2019-05-30T13:39:11.862Z,25.61
2019-05-30T13:41:41.334Z,25.66
2019-05-30T13:44:10.766Z,25.55
2019-05-30T13:46:40.208Z,24.97
2019-05-30T13:49:09.738Z,24.82
2019-05-30T13:51:39.138Z,25.01
2019-05-30T13:54:09.356Z,24.87
2019-05-30T13:56:38.960Z,24.82
2019-05-30T13:59:08.357Z,25.01
2019-05-30T14:01:37.915Z,24.98
2019-05-30T14:04:08.249Z,25.02
2019-05-30T14:06:37.816Z,25.10
2019-05-30T14:09:08.627Z,25.21
2019-05-30T14:11:38.192Z,25.10
2019-05-30T14:14:08.906Z,25.01
2019-05-30T14:16:38.568Z,25.11
2019-05-30T14:19:10.802Z,25.23
2019-05-30T14:21:39.247Z,26.46
2019-05-30T14:24:09.453Z,25.79
2019-05-30T14:26:39.140Z,25.60
2019-05-30T14:29:09.769Z,25.47
2019-05-30T14:31:39.488Z,25.64
2019-05-30T14:34:10.124Z,25.51
2019-05-30T14:36:39.625Z,25.61
2019-05-30T14:39:09.192Z,26.01
2019-05-30T14:41:38.606Z,26.25
2019-05-30T14:44:08.109Z,26.25
2019-05-30T14:46:37.532Z,25.61
2019-05-30T14:49:07.058Z,25.57
2019-05-30T14:51:36.543Z,25.71
2019-05-30T14:54:06.910Z,25.64
2019-05-30T14:56:36.421Z,25.74
2019-05-30T14:59:06.903Z,25.69
2019-05-30T15:01:36.400Z,25.46
2019-05-30T15:04:07.072Z,25.31
2019-05-30T15:06:36.579Z,25.43
2019-05-30T15:09:17.882Z,25.41
2019-05-30T15:11:38.221Z,25.33
2019-05-30T15:14:08.727Z,25.34
2019-05-30T15:16:38.299Z,25.40
2019-05-30T15:19:08.111Z,25.84
2019-05-30T15:21:37.578Z,26.35
2019-05-30T15:24:07.687Z,25.64
2019-05-30T15:26:37.864Z,25.64
2019-05-30T15:29:08.053Z,26.00
2019-05-30T15:31:37.624Z,25.96
2019-05-30T15:34:08.390Z,25.96
2019-05-30T15:36:37.898Z,26.26
2019-05-30T15:39:08.955Z,26.28
2019-05-30T15:41:38.463Z,26.28
2019-05-30T15:44:07.850Z,26.08
2019-05-30T15:46:37.486Z,26.05
2019-05-30T15:49:08.070Z,26.05
2019-05-30T15:51:37.515Z,26.27
2019-05-30T15:54:06.993Z,26.26
2019-05-30T15:56:36.358Z,26.12
2019-05-30T15:59:05.793Z,26.12
2019-05-30T16:01:35.166Z,26.14
2019-05-30T16:04:05.551Z,26.22
2019-05-30T16:06:34.890Z,26.61
2019-05-30T16:09:06.155Z,26.59
2019-05-30T16:11:35.690Z,26.59
2019-05-30T16:14:05.160Z,26.53
2019-05-30T16:16:40.052Z,26.57
2019-05-30T16:19:15.649Z,26.54
2019-05-30T16:21:36.868Z,26.66
2019-05-30T16:24:06.255Z,26.64
2019-05-30T16:26:35.603Z,26.81
2019-05-30T16:29:05.104Z,26.64
2019-05-30T16:31:34.442Z,26.64
2019-05-30T16:34:03.884Z,26.63
2019-05-30T16:36:33.293Z,26.63
2019-05-30T16:39:02.689Z,26.73
2019-05-30T16:41:32.190Z,26.75
2019-05-30T16:44:01.565Z,26.67
2019-05-30T16:46:31.597Z,26.77
2019-05-30T16:49:01.078Z,26.85
2019-05-30T16:51:30.452Z,26.82
2019-05-30T16:53:59.887Z,26.70
2019-05-30T16:56:29.279Z,26.49
2019-05-30T16:58:59.291Z,26.54
2019-05-30T17:01:28.709Z,26.52
2019-05-30T17:03:58.139Z,26.31
2019-05-30T17:06:27.651Z,26.31
2019-05-30T17:08:57.042Z,26.32
2019-05-30T17:11:26.419Z,26.18
2019-05-30T17:13:55.811Z,25.94
2019-05-30T17:16:26.275Z,25.99
2019-05-30T17:18:55.779Z,26.06
2019-05-30T17:21:25.146Z,25.69
2019-05-30T17:23:54.586Z,25.62
2019-05-30T17:26:25.263Z,25.52
2019-05-30T17:28:54.894Z,25.45
2019-05-30T17:31:24.374Z,25.43
2019-05-30T17:33:53.810Z,25.48
2019-05-30T17:36:24.199Z,25.54
2019-05-30T17:38:53.750Z,25.31
2019-05-30T17:41:23.230Z,25.41
2019-05-30T17:43:52.685Z,25.32
2019-05-30T17:46:23.230Z,25.27
2019-05-30T17:48:53.762Z,25.34
2019-05-30T17:51:23.771Z,25.28
2019-05-30T17:53:53.203Z,25.29
2019-05-30T17:56:23.901Z,25.19
2019-05-30T17:58:53.741Z,25.21
2019-05-30T18:01:24.171Z,25.21
2019-05-30T18:03:53.608Z,25.18
2019-05-30T18:06:24.354Z,25.15
2019-05-30T18:08:53.860Z,25.09
2019-05-30T18:11:23.320Z,24.98
2019-05-30T18:13:52.740Z,25.09
2019-05-30T18:16:23.037Z,24.97
2019-05-30T18:18:52.517Z,24.87
2019-05-30T18:21:21.990Z,24.84
2019-05-30T18:23:51.344Z,24.82
2019-05-30T18:26:21.461Z,24.76
2019-05-30T18:28:50.989Z,24.69
2019-05-30T18:31:21.782Z,24.66
2019-05-30T18:33:51.496Z,24.72
2019-05-30T18:36:22.274Z,24.69
2019-05-30T18:38:51.773Z,24.68
2019-05-30T18:41:21.156Z,24.59
2019-05-30T18:43:50.700Z,24.51
2019-05-30T18:46:20.102Z,24.46
2019-05-30T18:48:49.517Z,24.37
2019-05-30T18:51:19.014Z,24.31
2019-05-30T18:53:48.402Z,24.24
2019-05-30T18:56:17.815Z,24.19
2019-05-30T18:58:47.210Z,24.18
2019-05-30T19:01:16.638Z,24.09
2019-05-30T19:03:45.962Z,24.04
2019-05-30T19:06:15.383Z,23.98
2019-05-30T19:08:44.794Z,23.93
2019-05-30T19:11:27.193Z,23.90
2019-05-30T19:13:45.754Z,23.85
2019-05-30T19:16:15.487Z,23.80
2019-05-30T19:18:45.108Z,23.74
2019-05-30T19:21:14.584Z,23.74
2019-05-30T19:23:44.011Z,23.69
2019-05-30T19:26:13.505Z,23.64
2019-05-30T19:28:42.852Z,23.61
2019-05-30T19:31:12.264Z,23.56
2019-05-30T19:33:41.698Z,23.54
2019-05-30T19:36:11.039Z,23.57
2019-05-30T19:38:40.421Z,23.55
2019-05-30T19:41:09.892Z,23.50
2019-05-30T19:43:39.268Z,23.42
2019-05-30T19:46:08.715Z,23.36
2019-05-30T19:48:38.550Z,23.30
2019-05-30T19:51:08.072Z,23.26
2019-05-30T19:53:37.457Z,23.24
2019-05-30T19:56:06.947Z,23.21
2019-05-30T19:58:37.556Z,23.18
2019-05-30T20:01:07.127Z,23.13
2019-05-30T20:03:43.589Z,23.02
2019-05-30T20:06:07.670Z,22.93
2019-05-30T20:08:52.851Z,22.82
2019-05-30T20:11:08.230Z,22.75
2019-05-30T20:13:37.730Z,22.70
2019-05-30T20:16:07.128Z,22.60
2019-05-30T20:18:37.604Z,22.58
2019-05-30T20:21:06.968Z,22.55
2019-05-30T20:23:51.728Z,22.49
2019-05-30T20:26:07.575Z,22.41
2019-05-30T20:28:36.960Z,22.36
2019-05-30T20:31:06.795Z,22.36
2019-05-30T20:33:36.542Z,22.32
2019-05-30T20:36:06.043Z,22.25
2019-05-30T20:38:40.696Z,22.19
2019-05-30T20:41:10.034Z,22.11
2019-05-30T20:43:39.452Z,22.07
2019-05-30T20:46:22.405Z,22.05
2019-05-30T20:48:42.783Z,22.00
2019-05-30T20:51:20.769Z,21.98
2019-05-30T20:53:43.318Z,21.94
2019-05-30T20:56:12.803Z,21.91
2019-05-30T20:58:42.164Z,21.87
2019-05-30T21:01:14.695Z,21.84
2019-05-30T21:03:44.171Z,21.82
2019-05-30T21:06:14.075Z,21.77
2019-05-30T21:08:43.475Z,21.75
2019-05-30T21:11:13.068Z,21.73
2019-05-30T21:13:42.843Z,21.71
2019-05-30T21:16:13.905Z,21.70
2019-05-30T21:18:46.080Z,21.70
2019-05-30T21:21:15.454Z,21.68
2019-05-30T21:23:44.942Z,21.62
2019-05-30T21:26:14.380Z,21.60
2019-05-30T21:28:43.842Z,21.59
2019-05-30T21:31:13.259Z,21.54
2019-05-30T21:33:43.824Z,21.55
2019-05-30T21:36:13.706Z,21.54
2019-05-30T21:38:43.935Z,21.54
2019-05-30T21:41:13.420Z,21.53
2019-05-30T21:43:42.762Z,21.51
2019-05-30T21:46:12.258Z,21.48
2019-05-30T21:48:42.828Z,21.46
2019-05-30T21:51:13.804Z,21.44
2019-05-30T21:53:43.501Z,21.45
2019-05-30T21:56:13.113Z,21.42
2019-05-30T21:58:42.493Z,21.38
2019-05-30T22:01:37.431Z,21.29
2019-05-30T22:04:07.349Z,21.23
2019-05-30T22:06:37.045Z,21.27
2019-05-30T22:09:10.271Z,21.28
2019-05-30T22:11:39.716Z,21.21
2019-05-30T22:14:09.260Z,21.14
2019-05-30T22:16:38.637Z,21.06
2019-05-30T22:19:08.044Z,21.05
2019-05-30T22:21:37.443Z,20.98
2019-05-30T22:24:07.010Z,20.93
2019-05-30T22:26:36.508Z,20.98
2019-05-30T22:29:06.102Z,21.04
2019-05-30T22:31:35.591Z,21.08
2019-05-30T22:34:05.201Z,21.09
2019-05-30T22:36:34.727Z,21.09
2019-05-30T22:39:05.257Z,21.08
2019-05-30T22:41:34.760Z,21.07
2019-05-30T22:44:04.424Z,21.08
2019-05-30T22:46:33.916Z,21.08
2019-05-30T22:49:03.541Z,21.07
2019-05-30T22:51:32.997Z,21.07
2019-05-30T22:54:02.483Z,21.05
2019-05-30T22:56:32.007Z,21.05
2019-05-30T22:59:01.595Z,21.04
2019-05-30T23:01:31.242Z,21.00
2019-05-30T23:04:00.740Z,20.98
2019-05-30T23:06:30.291Z,20.97
2019-05-30T23:08:59.828Z,20.97
2019-05-30T23:11:29.422Z,20.96
2019-05-30T23:13:58.926Z,20.96
2019-05-30T23:16:28.421Z,20.96
2019-05-30T23:18:58.008Z,20.96
2019-05-30T23:21:27.519Z,20.94
2019-05-30T23:23:57.371Z,20.93
2019-05-30T23:26:26.899Z,20.92
2019-05-30T23:28:56.439Z,20.92
2019-05-30T23:31:26.016Z,20.89
2019-05-30T23:33:56.489Z,20.87
2019-05-30T23:36:26.044Z,20.88
2019-05-30T23:38:56.796Z,20.86
2019-05-30T23:41:26.421Z,20.86
2019-05-30T23:44:08.757Z,20.85
2019-05-30T23:46:27.094Z,20.83
2019-05-30T23:48:57.692Z,20.82
2019-05-30T23:51:27.389Z,20.81
2019-05-30T23:53:58.275Z,20.81
2019-05-30T23:56:27.945Z,20.79
2019-05-30T23:58:57.454Z,20.77
